Viana Do Castelo, Portugal

9:39 PM WEST on August 22, 2014 (GMT +0100)
Portela Susa | Change Station
CLOSE
Current Station
Personal Weather Station
Location: Viana Do Castelo, VIANA DO CASTELO
Elevation: 505 ft
Nearby Weather Stations

Elev 505 ft 41.67 °N, 8.70 °W | Updated 59 seconds ago

Clear
Clear
64.0 °F
Feels Like 64.0 °F
N
0.9
Wind Variable Wind from NNE
Gusts 3.1 mph

Today
High -- | Low -- °F
--% Chance of Precip.
Yesterday
High -- | Low -- °F
Precip. -- in
6:50 AM 8:24 PM
Waning Crescent, 7% visible
Pressure 30.09 in
Visibility -9999.0 miles
Clouds
Dew Point 60 °F
Humidity 85%
Rainfall 0.00 in
Snow Depth Not available.
UV Not available.
Pollen Not available.
Air Quality Not available.
Flu Activity Not available.
METAR LEVX 222030Z 01011KT 350V050 CAVOK 18/11 Q1019 NOSIG

More Conditions Fewer Conditions

Pressure 30.09 in
Visibility -9999.0 miles
Clouds
Dew Point 60 °F
Humidity 85%
Rainfall 0.00 in
Snow Depth Not available.
UV Not available.
Pollen Not available.
Air Quality Not available.
Flu Activity Not available.
METAR LEVX 222030Z 01011KT 350V050 CAVOK 18/11 Q1019 NOSIG

More Conditions Fewer Conditions

10-Day Weather Forecast

Almanac

Astronomy

Aug. 22, 2014 Rise Set
Actual Time 6:50 AM WEST 8:24 PM WEST
Civil Twilight 6:21 AM WEST 8:54 PM WEST
Nautical Twilight 5:45 AM WEST 9:29 PM WEST
Astronomical Twilight 5:08 AM WEST 10:06 PM WEST
Moon 4:00 AM WEST 6:25 PM WEST
Length of Visible Light 14h 32m
Length of Day
13h 34m
Tomorrow will be 2m 34s shorter.
Waning Crescent, 7% of the Moon is Illuminated
Today
Waning Crescent
Aug 25
New
Sep 2
First Quarter
Sep 8
Full
Sep 15
Last Quarter

Today's Extremes

Country Highs Country Lows

Community

WunderPhotos

Upload Photos

1,746,240 photos uploaded!

Nearby

Snow Depth

Not available.

Earthquake Activity

City Distance Mag. Time & Date
No recent earthquake activity has been reported nearby.
Minimum magnitude displayed is 2.5.

Coastal Water Temperatures

Place Temperature
No Stations Reporting

Nearby Weather Stations